createdAt,value
2023-05-19T00:00:19.669Z,64.98
2023-05-19T00:03:09.557Z,63.34
2023-05-19T00:05:45.633Z,63.56
2023-05-19T00:08:18.046Z,63.52
2023-05-19T00:10:47.353Z,62.72
2023-05-19T00:13:16.542Z,63.51
2023-05-19T00:15:46.113Z,62.57
2023-05-19T00:18:16.609Z,62.75
2023-05-19T00:20:45.635Z,63.24
2023-05-19T00:23:15.674Z,64.48
2023-05-19T00:25:44.970Z,63.55
2023-05-19T00:28:13.478Z,63.63
2023-05-19T00:30:43.762Z,64.68
2023-05-19T00:33:12.583Z,63.17
2023-05-19T00:35:41.802Z,63.19
2023-05-19T00:38:10.492Z,62.70
2023-05-19T00:40:41.369Z,62.89
2023-05-19T00:43:10.031Z,62.26
2023-05-19T00:45:39.026Z,62.69
2023-05-19T00:48:07.790Z,63.33
2023-05-19T00:50:36.874Z,62.77
2023-05-19T00:53:05.594Z,62.37
2023-05-19T00:55:36.639Z,61.86
2023-05-19T00:58:07.472Z,61.87
2023-05-19T01:00:37.528Z,61.15
2023-05-19T01:03:11.478Z,60.97
2023-05-19T01:05:44.863Z,62.38
2023-05-19T01:08:13.746Z,62.07
2023-05-19T01:10:43.056Z,62.29
2023-05-19T01:13:13.254Z,61.92
2023-05-19T01:16:08.999Z,61.18
2023-05-19T01:18:46.821Z,61.06
2023-05-19T01:21:48.688Z,60.25
2023-05-19T01:24:46.915Z,60.13
2023-05-19T01:27:44.135Z,59.66
2023-05-19T01:30:30.102Z,60.20
2023-05-19T01:33:02.510Z,61.11
2023-05-19T01:35:33.053Z,60.96
2023-05-19T01:38:03.316Z,62.34
2023-05-19T01:40:33.701Z,62.13
2023-05-19T01:43:03.579Z,61.29
2023-05-19T01:45:35.749Z,61.87
2023-05-19T01:48:09.254Z,61.56
2023-05-19T01:50:41.373Z,60.79
2023-05-19T01:53:10.690Z,62.22
2023-05-19T01:55:45.891Z,61.64
2023-05-19T01:58:21.887Z,61.42
2023-05-19T02:00:59.422Z,61.09
2023-05-19T02:03:46.226Z,61.26
2023-05-19T02:06:28.892Z,62.64
2023-05-19T02:09:02.159Z,61.90
2023-05-19T02:11:38.111Z,62.16
2023-05-19T02:14:15.002Z,62.06
2023-05-19T02:16:48.415Z,62.14
2023-05-19T02:19:25.812Z,62.00
2023-05-19T02:21:56.788Z,62.57
2023-05-19T02:24:26.130Z,62.19
2023-05-19T02:26:55.453Z,62.46
2023-05-19T02:29:24.497Z,62.33
2023-05-19T02:31:54.621Z,61.50
2023-05-19T02:34:23.630Z,60.92
2023-05-19T02:36:52.311Z,61.19
2023-05-19T02:39:21.160Z,61.23
2023-05-19T02:41:50.053Z,60.97
2023-05-19T02:44:19.110Z,62.46
2023-05-19T02:46:47.873Z,63.38
2023-05-19T02:49:18.296Z,63.62
2023-05-19T02:51:46.986Z,64.14
2023-05-19T02:54:16.090Z,68.37
2023-05-19T02:56:44.622Z,66.95
2023-05-19T02:59:13.761Z,67.44
2023-05-19T03:01:42.434Z,66.98
2023-05-19T03:04:11.612Z,69.01
2023-05-19T03:06:42.296Z,70.31
2023-05-19T03:09:11.613Z,71.33
2023-05-19T03:11:40.301Z,68.88
2023-05-19T03:14:10.078Z,67.41
2023-05-19T03:16:41.344Z,65.93
2023-05-19T03:19:10.859Z,64.67
2023-05-19T03:21:41.781Z,67.35
2023-05-19T03:24:10.738Z,67.67
2023-05-19T03:26:39.516Z,71.04
2023-05-19T03:29:08.587Z,72.61
2023-05-19T03:31:38.897Z,72.01
2023-05-19T03:34:07.855Z,70.19
2023-05-19T03:36:39.902Z,69.40
2023-05-19T03:39:15.373Z,68.14
2023-05-19T03:41:44.356Z,68.29
2023-05-19T03:44:13.226Z,67.50
2023-05-19T03:46:42.419Z,66.23
2023-05-19T03:49:30.641Z,64.37
2023-05-19T03:52:31.215Z,63.85
2023-05-19T03:55:16.485Z,67.15
2023-05-19T03:57:45.524Z,64.98
2023-05-19T04:00:15.330Z,64.49
2023-05-19T04:02:43.996Z,65.96
2023-05-19T04:05:12.959Z,65.08
2023-05-19T04:07:41.768Z,64.80
2023-05-19T04:10:11.412Z,65.72
2023-05-19T04:12:41.393Z,64.64
2023-05-19T04:15:12.521Z,65.09
2023-05-19T04:17:42.369Z,64.64
2023-05-19T04:20:12.953Z,64.16
2023-05-19T04:22:41.569Z,63.55
2023-05-19T04:25:12.004Z,64.62
2023-05-19T04:27:43.022Z,64.13
2023-05-19T04:30:18.539Z,68.99
2023-05-19T04:32:47.573Z,68.28
2023-05-19T04:35:17.684Z,69.55
2023-05-19T04:37:46.884Z,67.63
2023-05-19T04:40:17.517Z,67.66
2023-05-19T04:42:49.903Z,67.05
2023-05-19T04:45:19.805Z,70.66
2023-05-19T04:47:52.826Z,69.64
2023-05-19T04:50:21.842Z,69.21
2023-05-19T04:52:50.584Z,70.43
2023-05-19T04:55:19.844Z,70.15
2023-05-19T04:57:51.661Z,70.12
2023-05-19T05:00:22.982Z,69.83
2023-05-19T05:02:59.761Z,69.51
2023-05-19T05:05:32.087Z,69.30
2023-05-19T05:08:01.228Z,68.75
2023-05-19T05:10:34.388Z,67.65
2023-05-19T05:13:05.400Z,67.27
2023-05-19T05:15:35.682Z,68.94
2023-05-19T05:18:05.860Z,71.47
2023-05-19T05:20:35.751Z,69.77
2023-05-19T05:23:04.962Z,69.23
2023-05-19T05:25:36.230Z,68.45
2023-05-19T05:28:06.827Z,67.54
2023-05-19T05:30:38.441Z,67.61
2023-05-19T05:33:09.614Z,67.71
2023-05-19T05:35:40.931Z,68.70
2023-05-19T05:38:12.214Z,67.48
2023-05-19T05:40:42.492Z,67.15
2023-05-19T05:43:13.190Z,66.05
2023-05-19T05:45:48.659Z,66.00
2023-05-19T05:48:18.030Z,65.78
2023-05-19T05:50:47.397Z,64.76
2023-05-19T05:53:21.906Z,63.96
2023-05-19T05:55:55.020Z,63.43
2023-05-19T05:58:30.049Z,65.69
2023-05-19T06:00:59.774Z,64.63
2023-05-19T06:03:28.763Z,63.90
2023-05-19T06:06:03.338Z,62.72
2023-05-19T06:08:32.057Z,62.20
2023-05-19T06:11:01.433Z,61.50
2023-05-19T06:13:33.133Z,61.32
2023-05-19T06:16:02.867Z,60.89
2023-05-19T06:18:34.914Z,62.33
2023-05-19T06:21:04.441Z,62.10
2023-05-19T06:23:33.205Z,60.94
2023-05-19T06:26:02.475Z,60.51
2023-05-19T06:28:33.822Z,59.52
2023-05-19T06:31:02.887Z,59.42
2023-05-19T06:33:51.954Z,59.26
2023-05-19T06:36:22.903Z,59.90
2023-05-19T06:38:52.999Z,60.69
2023-05-19T06:41:22.725Z,60.82
2023-05-19T06:43:54.697Z,60.46
2023-05-19T06:46:24.223Z,60.93
2023-05-19T06:48:52.826Z,60.40
2023-05-19T06:51:25.092Z,59.86
2023-05-19T06:53:57.647Z,60.92
2023-05-19T06:56:26.925Z,61.97
2023-05-19T06:58:56.935Z,62.40
2023-05-19T07:01:32.417Z,61.14
2023-05-19T07:04:01.985Z,61.10
2023-05-19T07:06:32.062Z,60.87
2023-05-19T07:09:00.723Z,60.46
2023-05-19T07:11:30.846Z,59.62
2023-05-19T07:14:01.371Z,60.22
2023-05-19T07:16:33.547Z,59.93
2023-05-19T07:19:02.316Z,59.06
2023-05-19T07:21:31.643Z,58.96
2023-05-19T07:24:00.387Z,60.21
2023-05-19T07:26:30.716Z,59.97
2023-05-19T07:28:59.491Z,59.45
2023-05-19T07:31:29.991Z,60.67
2023-05-19T07:33:58.814Z,60.54
2023-05-19T07:36:28.087Z,62.31
2023-05-19T07:38:56.875Z,63.27
2023-05-19T07:41:26.275Z,63.42
2023-05-19T07:43:55.006Z,63.20
2023-05-19T07:46:24.086Z,61.76
2023-05-19T07:48:54.149Z,61.18
2023-05-19T07:51:23.075Z,61.51
2023-05-19T07:53:51.838Z,60.63
2023-05-19T07:56:21.330Z,59.74
2023-05-19T07:58:50.147Z,59.20
2023-05-19T08:01:19.010Z,58.38
2023-05-19T08:03:47.727Z,59.33
2023-05-19T08:06:18.064Z,61.57
2023-05-19T08:08:47.369Z,59.47
2023-05-19T08:11:16.574Z,59.05
2023-05-19T08:13:47.669Z,58.35
2023-05-19T08:16:16.833Z,57.61
2023-05-19T08:18:45.610Z,56.97
2023-05-19T08:21:14.640Z,56.64
2023-05-19T08:23:44.605Z,56.36
2023-05-19T08:26:13.713Z,55.20
2023-05-19T08:28:42.226Z,55.69
2023-05-19T08:31:11.344Z,56.44
2023-05-19T08:33:40.261Z,55.92
2023-05-19T08:36:09.320Z,55.13
2023-05-19T08:38:38.069Z,54.59
2023-05-19T08:41:08.545Z,54.75
2023-05-19T08:43:37.227Z,54.26
2023-05-19T08:46:08.326Z,56.46
2023-05-19T08:48:40.528Z,60.62
2023-05-19T08:51:21.886Z,59.12
2023-05-19T08:53:55.297Z,57.58
2023-05-19T08:56:26.935Z,57.72
2023-05-19T08:58:59.835Z,57.66
2023-05-19T09:01:30.404Z,58.75
2023-05-19T09:03:59.743Z,57.34
2023-05-19T09:06:32.415Z,56.57
2023-05-19T09:09:01.107Z,60.82
2023-05-19T09:11:31.399Z,61.47
2023-05-19T09:14:00.176Z,64.19
2023-05-19T09:16:30.447Z,65.29
2023-05-19T09:19:01.183Z,66.37
2023-05-19T09:21:33.973Z,65.14
2023-05-19T09:24:06.820Z,63.77
2023-05-19T09:26:42.264Z,63.86
2023-05-19T09:29:15.016Z,64.95
2023-05-19T09:31:50.644Z,64.72
2023-05-19T09:34:19.563Z,62.06
2023-05-19T09:36:50.845Z,60.44
2023-05-19T09:39:21.103Z,61.03
2023-05-19T09:44:29.713Z,59.63
2023-05-19T09:46:59.917Z,60.28
2023-05-19T09:49:31.416Z,64.52
2023-05-19T09:52:04.422Z,65.26
2023-05-19T09:54:35.405Z,64.21
2023-05-19T09:57:08.567Z,63.83
2023-05-19T09:59:39.029Z,65.14
2023-05-19T10:02:16.490Z,63.74
2023-05-19T10:04:47.687Z,62.25
2023-05-19T10:07:17.791Z,64.23
2023-05-19T10:09:47.293Z,64.49
2023-05-19T10:12:19.252Z,64.25
2023-05-19T10:14:49.900Z,63.65
2023-05-19T10:17:19.039Z,61.39
2023-05-19T10:19:51.728Z,58.96
2023-05-19T10:22:20.609Z,59.15
2023-05-19T10:24:49.451Z,59.66
2023-05-19T10:27:20.451Z,57.78
2023-05-19T10:29:52.989Z,56.58
2023-05-19T10:32:26.068Z,55.10
2023-05-19T10:35:25.682Z,53.09
2023-05-19T10:38:05.702Z,51.35
2023-05-19T10:40:38.109Z,52.00
2023-05-19T10:43:22.453Z,50.87
2023-05-19T10:45:54.409Z,53.52
2023-05-19T10:48:23.634Z,53.31
2023-05-19T10:50:55.200Z,52.66
2023-05-19T10:53:32.462Z,50.84
2023-05-19T10:56:04.359Z,50.48
2023-05-19T10:58:52.185Z,47.85
2023-05-19T11:01:22.325Z,45.95
2023-05-19T11:03:53.901Z,45.23
2023-05-19T11:06:28.309Z,44.42
2023-05-19T11:09:02.016Z,44.37
2023-05-19T11:11:46.897Z,43.37
2023-05-19T11:14:20.058Z,42.52
2023-05-19T11:16:49.816Z,42.88
2023-05-19T11:19:21.084Z,42.54
2023-05-19T11:21:52.517Z,41.18
2023-05-19T11:24:41.884Z,40.23
2023-05-19T11:27:21.185Z,39.59
2023-05-19T11:29:52.405Z,39.80
2023-05-19T11:32:22.736Z,39.90
2023-05-19T11:34:52.487Z,40.60
2023-05-19T11:37:21.314Z,40.09
2023-05-19T11:39:50.987Z,38.86
2023-05-19T11:42:20.202Z,38.73
2023-05-19T11:44:49.125Z,38.71
2023-05-19T11:47:19.252Z,37.20
2023-05-19T11:49:49.985Z,37.91
2023-05-19T11:52:18.904Z,41.00
2023-05-19T11:54:50.134Z,42.27
2023-05-19T11:57:18.983Z,41.04
2023-05-19T11:59:49.844Z,40.96
2023-05-19T12:02:21.491Z,40.54
2023-05-19T12:04:50.723Z,40.12
2023-05-19T12:07:22.919Z,39.68
2023-05-19T12:09:52.891Z,38.00
2023-05-19T12:12:22.636Z,37.18
2023-05-19T12:14:53.093Z,36.66
2023-05-19T12:17:24.214Z,36.09
2023-05-19T12:19:53.628Z,35.42
2023-05-19T12:22:22.426Z,34.70
2023-05-19T12:24:52.836Z,36.67
2023-05-19T12:27:24.282Z,35.40
2023-05-19T12:29:54.945Z,35.69
2023-05-19T12:32:26.601Z,35.73
2023-05-19T12:34:57.489Z,34.38
2023-05-19T12:37:30.120Z,32.99
2023-05-19T12:39:59.274Z,32.26
2023-05-19T12:42:31.514Z,30.83
2023-05-19T12:45:03.078Z,29.92
2023-05-19T12:47:36.618Z,28.98
2023-05-19T12:50:08.083Z,29.22
2023-05-19T12:52:43.478Z,30.21
2023-05-19T12:55:14.173Z,33.24
2023-05-19T12:57:45.307Z,34.82
2023-05-19T13:00:17.601Z,37.04
2023-05-19T13:03:05.716Z,35.24
2023-05-19T13:05:36.814Z,35.05
2023-05-19T13:08:08.082Z,36.04
2023-05-19T13:10:38.458Z,37.25
2023-05-19T13:13:08.333Z,38.14
2023-05-19T13:15:38.905Z,37.92
2023-05-19T13:18:10.395Z,38.57
2023-05-19T13:20:40.798Z,38.30
2023-05-19T13:23:11.811Z,38.63
2023-05-19T13:25:41.237Z,38.96
2023-05-19T13:28:11.000Z,37.75
2023-05-19T13:30:41.599Z,35.53
2023-05-19T13:33:12.032Z,33.56
2023-05-19T13:35:41.205Z,33.28
2023-05-19T13:38:11.263Z,32.70
2023-05-19T13:40:41.072Z,31.58
2023-05-19T13:43:09.913Z,32.28
2023-05-19T13:45:39.270Z,35.57
2023-05-19T13:48:08.616Z,36.99
2023-05-19T13:50:39.174Z,36.13
2023-05-19T13:53:08.342Z,35.20
2023-05-19T13:55:37.562Z,35.57
2023-05-19T13:58:06.233Z,35.04
2023-05-19T14:00:36.279Z,34.74
2023-05-19T14:03:05.248Z,34.27
2023-05-19T14:05:34.638Z,34.21
2023-05-19T14:08:05.580Z,34.45
2023-05-19T14:10:34.819Z,34.25
2023-05-19T14:13:30.243Z,33.53
2023-05-19T14:15:53.312Z,33.54
2023-05-19T14:18:22.036Z,32.99
2023-05-19T14:20:51.146Z,33.21
2023-05-19T14:23:21.707Z,32.42
2023-05-19T14:25:50.693Z,32.48
2023-05-19T14:28:19.399Z,34.07
2023-05-19T14:30:48.575Z,34.35
2023-05-19T14:33:17.574Z,34.24
2023-05-19T14:35:46.703Z,34.78
2023-05-19T14:38:15.460Z,35.03
2023-05-19T14:40:45.894Z,34.93
2023-05-19T14:43:14.479Z,35.32
2023-05-19T14:45:43.366Z,35.41
2023-05-19T14:48:12.481Z,36.69
2023-05-19T14:50:41.591Z,37.38
2023-05-19T14:53:10.539Z,37.09
2023-05-19T14:55:39.488Z,37.53
2023-05-19T14:58:23.585Z,37.17
2023-05-19T15:00:58.244Z,37.73
2023-05-19T15:03:27.105Z,36.62
2023-05-19T15:05:56.104Z,36.79
2023-05-19T15:08:24.782Z,36.46
2023-05-19T15:10:53.694Z,37.04
2023-05-19T15:13:23.694Z,37.21
2023-05-19T15:16:08.308Z,37.00
2023-05-19T15:18:44.352Z,37.20
2023-05-19T15:21:13.410Z,37.56
2023-05-19T15:23:42.423Z,37.66
2023-05-19T15:26:11.380Z,37.50
2023-05-19T15:28:41.582Z,37.51
2023-05-19T15:31:10.663Z,37.57
2023-05-19T15:33:39.286Z,37.39
2023-05-19T15:36:08.187Z,37.12
2023-05-19T15:38:37.724Z,37.22
2023-05-19T15:41:08.961Z,37.19
2023-05-19T15:43:37.612Z,37.16
2023-05-19T15:46:08.582Z,37.62
2023-05-19T15:48:37.649Z,37.62
2023-05-19T15:51:06.947Z,37.93
2023-05-19T15:53:35.679Z,37.57
2023-05-19T15:56:05.095Z,37.95
2023-05-19T15:58:33.907Z,38.01
2023-05-19T16:01:02.992Z,37.53
2023-05-19T16:03:33.118Z,37.53
2023-05-19T16:06:02.402Z,37.45
2023-05-19T16:08:31.432Z,38.05
2023-05-19T16:11:00.518Z,38.60
2023-05-19T16:13:30.456Z,38.50
2023-05-19T16:15:59.346Z,38.51
2023-05-19T16:18:29.235Z,38.94
2023-05-19T16:20:59.570Z,40.00
2023-05-19T16:23:28.254Z,39.87
2023-05-19T16:25:57.603Z,39.96
2023-05-19T16:28:26.368Z,39.92
2023-05-19T16:30:58.568Z,40.64
2023-05-19T16:33:27.436Z,41.18
2023-05-19T16:35:56.401Z,41.05
2023-05-19T16:38:26.815Z,40.99
2023-05-19T16:40:55.842Z,40.36
2023-05-19T16:43:24.515Z,40.39
2023-05-19T16:45:53.719Z,40.35
2023-05-19T16:48:22.678Z,40.16
2023-05-19T16:50:51.604Z,39.50
2023-05-19T16:53:20.222Z,38.97
2023-05-19T16:55:50.591Z,38.39
2023-05-19T16:58:19.209Z,37.60
2023-05-19T17:00:52.174Z,37.88
2023-05-19T17:03:21.181Z,37.05
2023-05-19T17:05:50.223Z,36.63
2023-05-19T17:08:18.907Z,36.42
2023-05-19T17:10:50.515Z,35.93
2023-05-19T17:13:19.174Z,35.37
2023-05-19T17:15:52.463Z,35.14
2023-05-19T17:18:21.493Z,35.09
2023-05-19T17:20:50.716Z,34.88
2023-05-19T17:23:19.401Z,34.80
2023-05-19T17:25:48.362Z,35.71
2023-05-19T17:28:18.304Z,35.50
2023-05-19T17:30:47.255Z,36.20
2023-05-19T17:33:15.904Z,35.89
2023-05-19T17:35:44.941Z,36.57
2023-05-19T17:38:13.613Z,36.60
2023-05-19T17:40:42.626Z,37.35
2023-05-19T17:43:11.349Z,37.78
2023-05-19T17:45:41.859Z,38.05
2023-05-19T17:48:10.514Z,38.42
2023-05-19T17:50:39.591Z,38.68
2023-05-19T17:53:08.692Z,39.47
2023-05-19T17:55:38.450Z,40.21
2023-05-19T17:58:07.609Z,40.77
2023-05-19T18:00:37.183Z,41.55
2023-05-19T18:03:08.280Z,42.29
2023-05-19T18:05:38.008Z,42.50
2023-05-19T18:08:09.609Z,43.40
2023-05-19T18:10:40.933Z,43.68
2023-05-19T18:13:11.497Z,44.61
2023-05-19T18:15:40.388Z,45.24
2023-05-19T18:18:11.024Z,46.09
2023-05-19T18:20:41.232Z,47.32
2023-05-19T18:23:09.884Z,47.84
2023-05-19T18:25:39.009Z,48.15
2023-05-19T18:28:07.855Z,48.29
2023-05-19T18:30:36.848Z,48.25
2023-05-19T18:33:07.326Z,49.02
2023-05-19T18:35:37.942Z,50.66
2023-05-19T18:38:06.558Z,50.85
2023-05-19T18:40:35.726Z,50.97
2023-05-19T18:43:04.654Z,50.83
2023-05-19T18:45:33.626Z,50.17
2023-05-19T18:48:02.240Z,50.51
2023-05-19T18:50:31.516Z,50.32
2023-05-19T18:53:01.810Z,50.71
2023-05-19T18:55:30.821Z,51.10
2023-05-19T18:57:59.410Z,51.22
2023-05-19T19:00:29.123Z,51.38
2023-05-19T19:02:57.824Z,51.60
2023-05-19T19:05:27.002Z,51.94
2023-05-19T19:07:55.707Z,51.51
2023-05-19T19:10:27.118Z,51.43
2023-05-19T19:12:55.870Z,51.60
2023-05-19T19:15:25.530Z,51.77
2023-05-19T19:17:54.281Z,51.80
2023-05-19T19:20:23.319Z,51.75
2023-05-19T19:22:53.063Z,51.48
2023-05-19T19:25:23.537Z,51.58
2023-05-19T19:27:53.831Z,51.94
2023-05-19T19:30:22.872Z,52.12
2023-05-19T19:32:51.535Z,52.51
2023-05-19T19:35:20.941Z,53.71
2023-05-19T19:37:51.749Z,54.51
2023-05-19T19:40:20.970Z,53.96
2023-05-19T19:42:49.773Z,53.70
2023-05-19T19:45:20.928Z,53.52
2023-05-19T19:47:49.908Z,54.18
2023-05-19T19:50:19.187Z,54.19
2023-05-19T19:52:47.910Z,54.88
2023-05-19T19:55:17.055Z,54.65
2023-05-19T19:57:49.298Z,55.09
2023-05-19T20:00:20.122Z,56.54
2023-05-19T20:03:03.578Z,58.20
2023-05-19T20:05:34.015Z,57.21
2023-05-19T20:08:02.721Z,56.73
2023-05-19T20:10:31.749Z,56.62
2023-05-19T20:13:00.554Z,56.64
2023-05-19T20:15:31.904Z,56.41
2023-05-19T20:18:00.645Z,56.39
2023-05-19T20:20:29.884Z,56.10
2023-05-19T20:22:58.553Z,55.83
2023-05-19T20:25:27.401Z,55.77
2023-05-19T20:27:56.180Z,55.63
2023-05-19T20:30:25.167Z,55.36
2023-05-19T20:32:55.254Z,56.48
2023-05-19T20:35:24.521Z,56.05
2023-05-19T20:37:53.083Z,56.08
2023-05-19T20:40:22.116Z,55.90
2023-05-19T20:42:51.945Z,56.35
2023-05-19T20:45:21.350Z,56.19
2023-05-19T20:47:49.973Z,56.08
2023-05-19T20:50:20.485Z,55.92
2023-05-19T20:52:49.183Z,55.58
2023-05-19T20:55:18.678Z,55.55
2023-05-19T20:57:47.432Z,55.75
2023-05-19T21:00:16.860Z,55.41
2023-05-19T21:02:45.790Z,55.72
2023-05-19T21:05:18.240Z,55.56
2023-05-19T21:07:48.287Z,55.82
2023-05-19T21:10:18.001Z,56.23
2023-05-19T21:12:46.790Z,56.29
2023-05-19T21:15:15.805Z,56.61
2023-05-19T21:17:44.464Z,56.68
2023-05-19T21:20:13.967Z,56.63
2023-05-19T21:22:42.626Z,56.67
2023-05-19T21:25:13.130Z,56.93
2023-05-19T21:27:42.209Z,56.84
2023-05-19T21:30:12.315Z,56.63
2023-05-19T21:32:42.225Z,57.88
2023-05-19T21:35:11.435Z,58.70
2023-05-19T21:37:40.429Z,58.72
2023-05-19T21:40:10.224Z,57.80
2023-05-19T21:42:40.200Z,57.15
2023-05-19T21:45:09.912Z,57.05
2023-05-19T21:47:38.719Z,56.62
2023-05-19T21:50:09.258Z,56.56
2023-05-19T21:52:38.807Z,56.50
2023-05-19T21:55:09.790Z,56.15
2023-05-19T21:57:38.605Z,56.18
2023-05-19T22:00:13.139Z,56.28
2023-05-19T22:02:42.263Z,55.94
2023-05-19T22:05:11.838Z,55.79
2023-05-19T22:07:40.642Z,57.87
2023-05-19T22:10:10.200Z,59.30
2023-05-19T22:12:38.819Z,58.31
2023-05-19T22:15:10.843Z,57.89
2023-05-19T22:17:39.547Z,57.37
2023-05-19T22:20:09.625Z,57.10
2023-05-19T22:22:38.305Z,57.17
2023-05-19T22:25:08.369Z,56.84
2023-05-19T22:27:36.996Z,56.35
2023-05-19T22:30:07.232Z,56.60
2023-05-19T22:32:37.179Z,56.72
2023-05-19T22:35:08.378Z,56.77
2023-05-19T22:37:37.079Z,57.15
2023-05-19T22:40:07.262Z,56.96
2023-05-19T22:42:35.907Z,56.93
2023-05-19T22:45:05.439Z,56.82
2023-05-19T22:47:34.334Z,56.81
2023-05-19T22:50:05.705Z,56.70
2023-05-19T22:52:34.506Z,56.50
2023-05-19T22:55:03.768Z,56.26
2023-05-19T22:57:32.964Z,56.68
2023-05-19T23:00:02.081Z,56.73
2023-05-19T23:02:31.572Z,57.06
2023-05-19T23:05:01.059Z,57.78
2023-05-19T23:07:31.498Z,57.66
2023-05-19T23:10:00.510Z,57.72
2023-05-19T23:12:29.130Z,57.57
2023-05-19T23:14:58.178Z,57.79
2023-05-19T23:17:26.897Z,57.67
2023-05-19T23:19:55.923Z,57.29
2023-05-19T23:22:24.668Z,57.53
2023-05-19T23:24:54.931Z,57.62
2023-05-19T23:27:23.448Z,57.13
2023-05-19T23:29:52.977Z,57.82
2023-05-19T23:32:21.720Z,57.99
2023-05-19T23:34:50.616Z,58.04
2023-05-19T23:37:19.386Z,59.37
2023-05-19T23:39:48.422Z,59.49
2023-05-19T23:42:18.444Z,59.44
2023-05-19T23:44:47.367Z,59.20
2023-05-19T23:47:15.999Z,60.22
2023-05-19T23:49:45.127Z,60.01
2023-05-19T23:52:14.227Z,60.80
2023-05-19T23:54:43.254Z,60.87
2023-05-19T23:57:11.976Z,61.08
2023-05-19T23:59:42.382Z,60.85
